Angelus Oaks, California
Current Conditions -  °F | °C
As of 7:15 PM on Wednesday 22 Oct 2014 (Local Time) from KL35 Reporting Station
Clear Clear  
Wind Chill:   Ceiling: Unl
Heat Index:   Visibility: 10mi
Dew Point: -6°   Wind: 0mph
Humidity: 34%   Direction: NA
Pressure: 30.25"   Gusts: NA
Location:  34.15°N, 116.98°W
Report Text: KL35 230215Z AUTO 00000KT 10SM CLR 09/M06 A3025 RMK AO2
Loading
Personal Weather Stations






























Interactive Weather Map
Tropical Storm Tracking
New forecast layout! Learn more

10-Day Weather Forecast

Advertisements
Track Severe Weather on mobile